Time;durP1;ratioP1;P1;durP2;ratioP2;P2;SDS_P1;SDS_P2;PMS_P1;PMS_P2;Temp;Humidity;BMP_temperature;BMP_pressure;BME280_temperature;BME280_humidity;BME280_pressure;Samples;Min_cycle;Max_cycle;Signal;HPM_P1;HPM_P2
2022/09/02 00:02:21;;;;;;;5.20;0.98;;;;;;;;;;5068152;28;20373;-72
2022/09/02 00:04:47;;;;;;;5.15;1.20;;;;;;;;;;5067299;28;20111;-72
2022/09/02 00:07:12;;;;;;;2.08;1.17;;;;;;;;;;5073987;28;20441;-73
2022/09/02 00:09:39;;;;;;;6.70;1.23;;;;;;;;;;5063339;28;20024;-74
2022/09/02 00:12:05;;;;;;;5.60;1.20;;;;;;;;;;5081511;28;20032;-73
2022/09/02 00:14:33;;;;;;;8.95;1.55;;;;;;;;;;5065286;28;20064;-73
2022/09/02 00:16:59;;;;;;;6.43;1.38;;;;;;;;;;5072279;28;20024;-73
2022/09/02 00:19:25;;;;;;;2.33;1.20;;;;;;;;;;5035736;28;20447;-73
2022/09/02 00:21:51;;;;;;;6.75;1.10;;;;;;;;;;5051058;28;20019;-73
2022/09/02 00:24:17;;;;;;;3.78;0.80;;;;;;;;;;5082147;28;20071;-73
2022/09/02 00:26:43;;;;;;;4.50;1.45;;;;;;;;;;5060106;28;20062;-73
2022/09/02 00:29:08;;;;;;;3.75;1.10;;;;;;;;;;5084271;28;20027;-73
2022/09/02 00:31:35;;;;;;;3.83;1.02;;;;;;;;;;5080662;28;20571;-73
2022/09/02 00:34:00;;;;;;;3.95;1.08;;;;;;;;;;5062194;28;20336;-73
2022/09/02 00:36:26;;;;;;;2.72;0.98;;;;;;;;;;5072179;28;20028;-72
2022/09/02 00:38:51;;;;;;;4.82;1.20;;;;;;;;;;5061014;28;20130;-73
2022/09/02 00:41:18;;;;;;;1.77;0.88;;;;;;;;;;5065692;28;20475;-73
2022/09/02 00:43:52;;;;;;;4.85;1.30;;;;;;;;;;5051007;28;20081;-73
2022/09/02 00:46:20;;;;;;;;;;;;;;;;;;5058984;28;20089;-72
2022/09/02 00:48:48;;;;;;;2.47;0.88;;;;;;;;;;5083822;28;20015;-74
2022/09/02 00:51:14;;;;;;;5.07;1.02;;;;;;;;;;5050493;28;20106;-74
2022/09/02 00:53:40;;;;;;;3.33;1.10;;;;;;;;;;5080264;28;20143;-74
2022/09/02 00:56:07;;;;;;;2.95;1.33;;;;;;;;;;5055936;28;20047;-74
2022/09/02 00:58:32;;;;;;;3.58;0.80;;;;;;;;;;5060029;28;20024;-74
2022/09/02 01:00:58;;;;;;;3.08;1.05;;;;;;;;;;5065129;28;20028;-74
2022/09/02 01:03:25;;;;;;;5.25;1.25;;;;;;;;;;5044483;28;20024;-74
2022/09/02 01:05:51;;;;;;;7.50;0.93;;;;;;;;;;5053739;28;20676;-74
2022/09/02 01:08:19;;;;;;;2.03;0.90;;;;;;;;;;5062933;28;20028;-74
2022/09/02 01:10:46;;;;;;;2.40;1.02;;;;;;;;;;5083173;28;20024;-74
2022/09/02 01:13:16;;;;;;;5.70;1.25;;;;;;;;;;5041938;28;20044;-73
2022/09/02 01:15:47;;;;;;;5.47;1.00;;;;;;;;;;5076688;28;20060;-73
2022/09/02 01:18:15;;;;;;;3.03;1.00;;;;;;;;;;5080915;28;20035;-73
2022/09/02 01:20:41;;;;;;;3.08;1.00;;;;;;;;;;5057172;28;20121;-73
2022/09/02 01:23:06;;;;;;;2.55;1.20;;;;;;;;;;5062614;28;20110;-72
2022/09/02 01:25:32;;;;;;;2.70;0.80;;;;;;;;;;5062332;28;20538;-74
2022/09/02 01:28:02;;;;;;;2.33;1.20;;;;;;;;;;5063704;28;20093;-73
2022/09/02 01:30:28;;;;;;;4.43;1.38;;;;;;;;;;5058835;28;20036;-73
2022/09/02 01:32:54;;;;;;;2.05;1.02;;;;;;;;;;5061436;28;20036;-73
2022/09/02 01:35:19;;;;;;;3.42;1.20;;;;;;;;;;5063891;28;20094;-73
2022/09/02 01:37:45;;;;;;;3.13;1.15;;;;;;;;;;5084604;28;20110;-74
2022/09/02 01:40:12;;;;;;;6.88;1.08;;;;;;;;;;5046662;28;20040;-74
2022/09/02 01:42:39;;;;;;;5.80;1.23;;;;;;;;;;5060906;28;20352;-74
2022/09/02 01:45:06;;;;;;;4.18;1.10;;;;;;;;;;5064462;28;20035;-74
2022/09/02 01:47:31;;;;;;;4.30;0.90;;;;;;;;;;5054826;28;20021;-73
2022/09/02 01:49:57;;;;;;;7.47;1.50;;;;;;;;;;5076632;28;20467;-73
2022/09/02 01:52:23;;;;;;;5.00;1.40;;;;;;;;;;5078709;28;20032;-73
2022/09/02 01:54:48;;;;;;;6.18;0.93;;;;;;;;;;5080242;28;20027;-73
2022/09/02 01:57:13;;;;;;;2.70;1.10;;;;;;;;;;5062744;28;20095;-73
2022/09/02 01:59:39;;;;;;;2.05;1.10;;;;;;;;;;5064372;28;20016;-73
2022/09/02 02:02:04;;;;;;;3.40;0.80;;;;;;;;;;5064447;28;20208;-74
2022/09/02 02:04:30;;;;;;;3.58;1.42;;;;;;;;;;5081264;28;20081;-74
2022/09/02 02:06:55;;;;;;;4.25;1.23;;;;;;;;;;5063004;28;20036;-74
2022/09/02 02:09:21;;;;;;;4.55;1.30;;;;;;;;;;5082869;28;20034;-74
2022/09/02 02:11:46;;;;;;;5.30;1.00;;;;;;;;;;5078529;28;20527;-73
2022/09/02 02:14:12;;;;;;;3.78;0.95;;;;;;;;;;5066827;28;20138;-74
2022/09/02 02:16:37;;;;;;;3.03;1.17;;;;;;;;;;5076035;28;20031;-74
2022/09/02 02:19:03;;;;;;;1.88;1.25;;;;;;;;;;5079541;28;20068;-74
2022/09/02 02:21:29;;;;;;;3.53;1.45;;;;;;;;;;5082398;28;20016;-74
2022/09/02 02:23:54;;;;;;;4.07;1.13;;;;;;;;;;5083045;28;20093;-74
2022/09/02 02:26:19;;;;;;;2.53;1.30;;;;;;;;;;5075305;28;20059;-73
2022/09/02 02:28:45;;;;;;;1.98;0.82;;;;;;;;;;5062662;28;20089;-73
2022/09/02 02:31:10;;;;;;;3.00;1.05;;;;;;;;;;5080205;28;20020;-73
2022/09/02 02:33:37;;;;;;;4.38;1.30;;;;;;;;;;5058832;28;20054;-73
2022/09/02 02:36:03;;;;;;;4.47;1.02;;;;;;;;;;5060093;28;20036;-74
2022/09/02 02:38:29;;;;;;;4.63;1.25;;;;;;;;;;5080114;28;20046;-74
2022/09/02 02:40:56;;;;;;;4.68;1.20;;;;;;;;;;5049217;28;20028;-74
2022/09/02 02:43:23;;;;;;;5.78;1.50;;;;;;;;;;5046646;28;20112;-74
2022/09/02 02:45:48;;;;;;;2.20;1.10;;;;;;;;;;5054153;28;20031;-74
2022/09/02 02:48:14;;;;;;;3.15;1.20;;;;;;;;;;5072114;28;20020;-73
2022/09/02 02:50:40;;;;;;;5.60;1.05;;;;;;;;;;5043535;28;20059;-74
2022/09/02 02:53:06;;;;;;;3.58;1.30;;;;;;;;;;5079422;28;20028;-74
2022/09/02 02:55:31;;;;;;;7.97;1.45;;;;;;;;;;5078088;28;20074;-74
2022/09/02 02:57:57;;;;;;;3.67;1.10;;;;;;;;;;5080552;28;20028;-74
2022/09/02 03:00:24;;;;;;;2.70;1.08;;;;;;;;;;5078876;28;20035;-74
2022/09/02 03:02:54;;;;;;;2.63;1.17;;;;;;;;;;5056254;28;20087;-73
2022/09/02 03:05:20;;;;;;;6.47;1.40;;;;;;;;;;5080647;28;20299;-73
2022/09/02 03:07:45;;;;;;;2.97;1.00;;;;;;;;;;5083238;28;20302;-74
2022/09/02 03:10:11;;;;;;;1.52;1.00;;;;;;;;;;5080609;28;20043;-74
2022/09/02 03:12:38;;;;;;;1.77;1.00;;;;;;;;;;5065890;28;20028;-74
2022/09/02 03:15:05;;;;;;;7.07;1.40;;;;;;;;;;5065775;28;20027;-73
2022/09/02 03:17:31;;;;;;;3.00;1.20;;;;;;;;;;5073692;28;20103;-73
2022/09/02 03:19:57;;;;;;;2.65;1.30;;;;;;;;;;5068825;28;20040;-73
2022/09/02 03:22:23;;;;;;;2.63;1.00;;;;;;;;;;5084944;28;20064;-74
2022/09/02 03:24:48;;;;;;;2.30;1.10;;;;;;;;;;5076432;28;20087;-71
2022/09/02 03:27:14;;;;;;;4.72;1.23;;;;;;;;;;5080305;28;20560;-76
2022/09/02 03:29:39;;;;;;;2.83;1.05;;;;;;;;;;5051029;28;20036;-77
2022/09/02 03:32:05;;;;;;;2.30;1.05;;;;;;;;;;5036110;28;20055;-74
2022/09/02 03:34:31;;;;;;;4.50;1.00;;;;;;;;;;5064367;28;20032;-74
2022/09/02 03:36:56;;;;;;;3.78;1.00;;;;;;;;;;5058738;28;20136;-77
2022/09/02 03:39:22;;;;;;;3.05;1.10;;;;;;;;;;5045601;28;20025;-75
2022/09/02 03:41:49;;;;;;;2.60;1.15;;;;;;;;;;5079499;28;20024;-74
2022/09/02 03:44:14;;;;;;;2.40;1.27;;;;;;;;;;5074991;28;20690;-73
2022/09/02 03:46:39;;;;;;;1.92;0.90;;;;;;;;;;5073704;28;20020;-73
2022/09/02 03:49:05;;;;;;;3.30;1.42;;;;;;;;;;5068100;28;20114;-73
2022/09/02 03:51:30;;;;;;;4.38;0.98;;;;;;;;;;5085628;28;20277;-73
2022/09/02 03:53:56;;;;;;;6.35;1.52;;;;;;;;;;5079168;28;20032;-73
2022/09/02 03:56:21;;;;;;;6.60;1.27;;;;;;;;;;5067920;28;20070;-73
2022/09/02 03:58:48;;;;;;;2.72;1.10;;;;;;;;;;5034691;28;20028;-74
2022/09/02 04:01:18;;;;;;;2.40;0.90;;;;;;;;;;5064211;28;20020;-73
2022/09/02 04:03:44;;;;;;;5.45;1.25;;;;;;;;;;5080549;28;20078;-73
2022/09/02 04:06:11;;;;;;;1.98;1.13;;;;;;;;;;5061857;28;20040;-73
2022/09/02 04:08:37;;;;;;;3.50;1.20;;;;;;;;;;5084316;28;20019;-73
2022/09/02 04:11:09;;;;;;;4.50;1.30;;;;;;;;;;5079199;28;20039;-74
2022/09/02 04:13:35;;;;;;;3.40;1.40;;;;;;;;;;5084327;28;20059;-74
2022/09/02 04:16:05;;;;;;;3.97;1.33;;;;;;;;;;5070094;28;20083;-74
2022/09/02 04:18:31;;;;;;;4.93;1.52;;;;;;;;;;5052154;28;20036;-74
2022/09/02 04:20:58;;;;;;;4.50;1.45;;;;;;;;;;5052387;28;20184;-74
2022/09/02 04:23:24;;;;;;;3.08;1.15;;;;;;;;;;5090717;28;20492;-74
2022/09/02 04:25:49;;;;;;;3.75;1.20;;;;;;;;;;5069124;28;20036;-74
2022/09/02 04:28:15;;;;;;;4.85;1.13;;;;;;;;;;5088954;28;20079;-73
2022/09/02 04:30:40;;;;;;;3.08;1.00;;;;;;;;;;5081983;28;20058;-74
2022/09/02 04:33:06;;;;;;;3.70;1.42;;;;;;;;;;5052326;28;20111;-73
2022/09/02 04:35:31;;;;;;;6.20;1.40;;;;;;;;;;5072299;28;20078;-74
2022/09/02 04:37:57;;;;;;;3.65;1.30;;;;;;;;;;5051268;28;20504;-72
2022/09/02 04:40:23;;;;;;;5.38;1.10;;;;;;;;;;5064546;28;20130;-74
2022/09/02 04:42:49;;;;;;;4.22;1.15;;;;;;;;;;5051554;28;20562;-74
2022/09/02 04:45:17;;;;;;;2.55;1.20;;;;;;;;;;5042902;28;20126;-74
2022/09/02 04:47:42;;;;;;;5.80;1.88;;;;;;;;;;5049252;28;20511;-74
2022/09/02 04:50:08;;;;;;;7.95;1.50;;;;;;;;;;5074096;28;20020;-73
2022/09/02 04:52:33;;;;;;;5.25;1.35;;;;;;;;;;5050775;28;20044;-73
2022/09/02 04:54:59;;;;;;;2.63;1.30;;;;;;;;;;5055025;28;20060;-75
2022/09/02 04:57:25;;;;;;;3.55;1.38;;;;;;;;;;5074904;28;20032;-72
2022/09/02 04:59:50;;;;;;;6.45;1.10;;;;;;;;;;5080631;28;20040;-72
2022/09/02 05:02:17;;;;;;;5.88;1.63;;;;;;;;;;5053676;28;20113;-75
2022/09/02 05:04:42;;;;;;;4.15;1.33;;;;;;;;;;5051706;28;20047;-71
2022/09/02 05:07:07;;;;;;;2.83;1.30;;;;;;;;;;5077668;28;20056;-72
2022/09/02 05:09:33;;;;;;;4.82;1.33;;;;;;;;;;5053872;28;20052;-72
2022/09/02 05:12:02;;;;;;;4.53;1.25;;;;;;;;;;5053437;28;20037;-72
2022/09/02 05:14:28;;;;;;;2.17;1.02;;;;;;;;;;5070474;28;20028;-72
2022/09/02 05:16:53;;;;;;;4.80;1.45;;;;;;;;;;5078777;28;20032;-72
2022/09/02 05:19:20;;;;;;;2.95;1.23;;;;;;;;;;5049942;28;20147;-71
2022/09/02 05:21:46;;;;;;;2.67;1.30;;;;;;;;;;5060962;28;20566;-72
2022/09/02 05:24:11;;;;;;;4.00;1.40;;;;;;;;;;5048315;28;20020;-72
2022/09/02 05:26:36;;;;;;;3.15;1.40;;;;;;;;;;5073835;28;20135;-72
2022/09/02 05:29:05;;;;;;;2.35;1.20;;;;;;;;;;5059226;28;20044;-70
2022/09/02 05:31:31;;;;;;;3.78;1.30;;;;;;;;;;5078830;28;20481;-70
2022/09/02 05:33:56;;;;;;;4.15;1.42;;;;;;;;;;5064738;28;20124;-73
2022/09/02 05:36:21;;;;;;;4.15;1.10;;;;;;;;;;5037936;28;20061;-72
2022/09/02 05:38:47;;;;;;;4.95;1.65;;;;;;;;;;5072703;28;20506;-71
2022/09/02 05:41:18;;;;;;;3.80;1.38;;;;;;;;;;5077870;28;20028;-71
2022/09/02 05:43:44;;;;;;;5.68;1.35;;;;;;;;;;5079839;28;20551;-71
2022/09/02 05:46:17;;;;;;;2.88;1.20;;;;;;;;;;5050751;28;20500;-71
2022/09/02 05:51:27;;;;;;;2.90;1.38;;;;;;;;;;5064328;28;20493;-71
2022/09/02 05:53:53;;;;;;;2.03;1.20;;;;;;;;;;5053883;28;20118;-71
2022/09/02 05:56:19;;;;;;;6.38;1.25;;;;;;;;;;5053355;28;20114;-71
2022/09/02 05:58:45;;;;;;;4.88;1.40;;;;;;;;;;5051662;28;20023;-72
2022/09/02 06:01:11;;;;;;;4.10;1.50;;;;;;;;;;5028550;28;20064;-73
2022/09/02 06:03:37;;;;;;;4.57;1.73;;;;;;;;;;5056197;28;20032;-74
2022/09/02 06:06:02;;;;;;;3.22;1.25;;;;;;;;;;5041020;28;20052;-74
2022/09/02 06:08:28;;;;;;;6.43;1.15;;;;;;;;;;5032065;28;20114;-74
2022/09/02 06:10:53;;;;;;;4.63;1.33;;;;;;;;;;5073801;28;20031;-74
2022/09/02 06:13:21;;;;;;;3.35;1.50;;;;;;;;;;5077598;28;20078;-74
2022/09/02 06:15:49;;;;;;;3.38;1.02;;;;;;;;;;5036570;28;20017;-74
2022/09/02 06:18:15;;;;;;;4.80;1.05;;;;;;;;;;5036225;28;20032;-74
2022/09/02 06:20:41;;;;;;;4.45;1.30;;;;;;;;;;5054495;28;20495;-74
2022/09/02 06:23:07;;;;;;;6.97;2.10;;;;;;;;;;5035755;28;20024;-74
2022/09/02 06:25:36;;;;;;;3.75;1.00;;;;;;;;;;5068109;28;20075;-74
2022/09/02 06:28:02;;;;;;;5.57;1.42;;;;;;;;;;5069203;28;20056;-74
2022/09/02 06:30:27;;;;;;;6.18;1.50;;;;;;;;;;5053013;28;20059;-74
2022/09/02 06:32:53;;;;;;;7.18;1.60;;;;;;;;;;5050634;28;20025;-74
2022/09/02 06:35:18;;;;;;;9.40;1.60;;;;;;;;;;5027554;28;20435;-74
2022/09/02 06:37:46;;;;;;;15.95;1.70;;;;;;;;;;5069587;28;20052;-74
2022/09/02 06:40:13;;;;;;;13.25;1.55;;;;;;;;;;5040418;28;20046;-74
2022/09/02 06:42:39;;;;;;;11.02;2.15;;;;;;;;;;5051518;28;20013;-74
2022/09/02 06:45:08;;;;;;;14.40;1.92;;;;;;;;;;5068471;28;20387;-74
2022/09/02 06:47:33;;;;;;;11.23;2.03;;;;;;;;;;5052881;28;20042;-74
2022/09/02 06:49:59;;;;;;;4.00;1.55;;;;;;;;;;5055007;28;20325;-74
2022/09/02 06:52:24;;;;;;;6.10;1.70;;;;;;;;;;5039979;28;20078;-74
2022/09/02 06:54:50;;;;;;;3.08;1.30;;;;;;;;;;5055266;28;20119;-74
2022/09/02 06:57:15;;;;;;;4.95;1.30;;;;;;;;;;5056196;28;20025;-74
2022/09/02 06:59:41;;;;;;;6.00;1.45;;;;;;;;;;5072284;28;20024;-74
2022/09/02 07:02:06;;;;;;;7.07;1.40;;;;;;;;;;5038889;28;20243;-74
2022/09/02 07:07:16;;;;;;;2.50;1.20;;;;;;;;;;5052638;28;20025;-74
2022/09/02 07:09:41;;;;;;;3.03;1.20;;;;;;;;;;5043595;28;20036;-74
2022/09/02 07:12:07;;;;;;;4.72;1.50;;;;;;;;;;5065299;28;20543;-74
2022/09/02 07:14:37;;;;;;;6.78;1.70;;;;;;;;;;5054797;28;20051;-74
2022/09/02 07:17:02;;;;;;;7.75;1.25;;;;;;;;;;5044667;28;20098;-74
2022/09/02 07:19:28;;;;;;;4.45;1.33;;;;;;;;;;5069641;28;20476;-74
2022/09/02 07:21:53;;;;;;;5.10;1.20;;;;;;;;;;5059240;28;20407;-75
2022/09/02 07:24:19;;;;;;;5.80;1.58;;;;;;;;;;5050938;28;20104;-74
2022/09/02 07:26:47;;;;;;;7.55;1.77;;;;;;;;;;5050321;28;20049;-74
2022/09/02 07:29:13;;;;;;;6.88;1.63;;;;;;;;;;5055690;28;20499;-74
2022/09/02 07:31:40;;;;;;;4.82;1.50;;;;;;;;;;5044709;28;20127;-75
2022/09/02 07:34:06;;;;;;;4.72;1.33;;;;;;;;;;5040841;28;20032;-74
2022/09/02 07:36:33;;;;;;;10.50;1.67;;;;;;;;;;5030215;28;20021;-75
2022/09/02 07:38:59;;;;;;;9.18;1.45;;;;;;;;;;5038770;28;20036;-75
2022/09/02 07:41:24;;;;;;;6.65;1.30;;;;;;;;;;5073319;28;20907;-74
2022/09/02 07:43:50;;;;;;;8.38;1.13;;;;;;;;;;5073976;28;20116;-74
2022/09/02 07:46:15;;;;;;;5.00;1.30;;;;;;;;;;5036522;28;20066;-74
2022/09/02 07:48:41;;;;;;;5.43;1.10;;;;;;;;;;5027663;28;20272;-76
2022/09/02 07:51:07;;;;;;;6.22;1.15;;;;;;;;;;5057449;28;20035;-77
2022/09/02 07:53:33;;;;;;;3.10;1.25;;;;;;;;;;5028314;28;20025;-76
2022/09/02 07:55:58;;;;;;;7.55;1.40;;;;;;;;;;5039768;28;20384;-76
2022/09/02 07:58:24;;;;;;;2.50;1.20;;;;;;;;;;5055880;28;20020;-76
2022/09/02 08:00:50;;;;;;;2.95;1.02;;;;;;;;;;5041176;28;20039;-76
2022/09/02 08:03:16;;;;;;;4.30;1.02;;;;;;;;;;5055033;28;20077;-76
2022/09/02 08:05:43;;;;;;;6.70;1.63;;;;;;;;;;5036120;28;20036;-76
2022/09/02 08:08:09;;;;;;;3.53;1.27;;;;;;;;;;5020289;28;20060;-76
2022/09/02 08:10:34;;;;;;;6.03;1.27;;;;;;;;;;5048838;28;20085;-73
2022/09/02 08:13:00;;;;;;;9.82;2.40;;;;;;;;;;5031649;28;20044;-74
2022/09/02 08:15:27;;;;;;;6.85;1.20;;;;;;;;;;5053112;28;20474;-74
2022/09/02 08:17:53;;;;;;;9.43;1.50;;;;;;;;;;5049505;28;20040;-73
2022/09/02 08:20:18;;;;;;;6.88;1.27;;;;;;;;;;5048018;28;20082;-73
2022/09/02 08:22:44;;;;;;;2.95;1.23;;;;;;;;;;5047571;28;20420;-75
2022/09/02 08:25:10;;;;;;;6.78;1.30;;;;;;;;;;5065510;28;20027;-73
2022/09/02 08:27:35;;;;;;;4.57;1.20;;;;;;;;;;5071294;28;20553;-73
2022/09/02 08:30:01;;;;;;;3.17;1.02;;;;;;;;;;5020557;28;20032;-73
2022/09/02 08:32:27;;;;;;;6.15;1.33;;;;;;;;;;5069653;28;20021;-73
2022/09/02 08:34:53;;;;;;;7.07;1.67;;;;;;;;;;5053111;28;20126;-76
2022/09/02 08:37:18;;;;;;;3.80;1.20;;;;;;;;;;5052098;28;20037;-74
2022/09/02 08:39:46;;;;;;;4.78;1.20;;;;;;;;;;5048113;28;20094;-75
2022/09/02 08:42:14;;;;;;;4.15;1.52;;;;;;;;;;5059092;28;20025;-75
2022/09/02 08:44:40;;;;;;;5.88;1.65;;;;;;;;;;5071931;28;20622;-75
2022/09/02 08:47:09;;;;;;;4.35;1.00;;;;;;;;;;5035167;28;20020;-75
2022/09/02 08:49:37;;;;;;;4.28;1.20;;;;;;;;;;5051739;28;20041;-74
2022/09/02 08:52:03;;;;;;;7.55;1.33;;;;;;;;;;5066805;28;20024;-74
2022/09/02 08:54:49;;;;;;;4.47;1.10;;;;;;;;;;5070373;28;20035;-75
2022/09/02 08:57:14;;;;;;;10.18;1.20;;;;;;;;;;5068716;28;20020;-75
2022/09/02 08:59:42;;;;;;;5.80;1.10;;;;;;;;;;5052232;28;20044;-75
2022/09/02 09:02:22;;;;;;;3.40;1.20;;;;;;;;;;5045278;28;20032;-75
2022/09/02 09:05:06;;;;;;;7.30;1.48;;;;;;;;;;5049821;28;20025;-74
2022/09/02 09:08:22;;;;;;;7.20;1.25;;;;;;;;;;5069034;28;20032;-75
2022/09/02 09:11:16;;;;;;;3.58;1.08;;;;;;;;;;5034671;28;20127;-75
2022/09/02 09:14:12;;;;;;;6.30;1.23;;;;;;;;;;5056628;28;20503;-75
2022/09/02 09:16:54;;;;;;;3.67;1.20;;;;;;;;;;5052669;28;20024;-75
2022/09/02 09:19:49;;;;;;;7.13;1.40;;;;;;;;;;5070459;28;20467;-75
2022/09/02 09:22:17;;;;;;;8.15;1.33;;;;;;;;;;5052963;28;20643;-75
2022/09/02 09:24:46;;;;;;;6.20;1.50;;;;;;;;;;5070543;28;20123;-75
2022/09/02 09:27:13;;;;;;;5.30;1.17;;;;;;;;;;5040976;28;20053;-74
2022/09/02 09:29:39;;;;;;;4.93;1.25;;;;;;;;;;5053345;28;20044;-75
2022/09/02 09:32:05;;;;;;;2.42;1.05;;;;;;;;;;5015138;28;20036;-75
2022/09/02 09:35:07;;;;;;;4.20;1.20;;;;;;;;;;5035216;28;20067;-74
2022/09/02 09:37:43;;;;;;;4.35;1.27;;;;;;;;;;5063089;28;20040;-75
2022/09/02 09:40:17;;;;;;;2.95;0.90;;;;;;;;;;5053654;28;20110;-75
2022/09/02 09:42:42;;;;;;;4.10;1.00;;;;;;;;;;5068071;28;20029;-75
2022/09/02 09:45:26;;;;;;;4.93;1.13;;;;;;;;;;5063050;28;20413;-75
2022/09/02 09:48:26;;;;;;;3.40;1.13;;;;;;;;;;5016676;28;20025;-75
2022/09/02 09:51:08;;;;;;;6.53;1.33;;;;;;;;;;5051502;28;20033;-74
2022/09/02 09:53:34;;;;;;;7.53;1.27;;;;;;;;;;5062588;28;20016;-74
2022/09/02 09:56:12;;;;;;;3.92;1.00;;;;;;;;;;5049477;28;20481;-74
2022/09/02 09:58:40;;;;;;;7.47;1.30;;;;;;;;;;5054140;28;20464;-74
2022/09/02 10:01:33;;;;;;;3.90;1.02;;;;;;;;;;5068380;28;20024;-74
2022/09/02 10:04:10;;;;;;;2.58;1.05;;;;;;;;;;5062157;28;20051;-74
2022/09/02 10:06:40;;;;;;;3.65;0.90;;;;;;;;;;5076934;28;20021;-75
2022/09/02 10:09:31;;;;;;;6.43;1.17;;;;;;;;;;5062082;28;20036;-74
2022/09/02 10:12:04;;;;;;;5.45;1.15;;;;;;;;;;5052886;28;20025;-74
2022/09/02 10:14:36;;;;;;;2.97;1.10;;;;;;;;;;5055106;28;20443;-74
2022/09/02 10:17:31;;;;;;;8.57;1.30;;;;;;;;;;5039932;28;20020;-74
2022/09/02 10:20:05;;;;;;;5.80;1.02;;;;;;;;;;5052393;28;20384;-74
2022/09/02 10:22:46;;;;;;;4.68;1.05;;;;;;;;;;5067213;28;20082;-74
2022/09/02 10:25:28;;;;;;;6.50;1.40;;;;;;;;;;5067453;28;20089;-74
2022/09/02 10:28:21;;;;;;;7.05;1.05;;;;;;;;;;5020670;28;20421;-74
2022/09/02 10:31:11;;;;;;;3.58;0.80;;;;;;;;;;5049382;28;20032;-74
2022/09/02 10:33:43;;;;;;;1.70;0.90;;;;;;;;;;5061633;28;20053;-74
2022/09/02 10:36:14;;;;;;;1.73;1.02;;;;;;;;;;5065213;28;20032;-72
2022/09/02 10:38:43;;;;;;;8.00;1.25;;;;;;;;;;5036578;28;20028;-73
2022/09/02 10:41:44;;;;;;;10.93;1.20;;;;;;;;;;5063591;28;20418;-72
2022/09/02 10:44:29;;;;;;;3.67;1.20;;;;;;;;;;5065219;28;20480;-72
2022/09/02 10:47:00;;;;;;;1.88;1.05;;;;;;;;;;5069509;28;20033;-73
2022/09/02 10:49:41;;;;;;;5.90;1.37;;;;;;;;;;5074235;28;20032;-72
2022/09/02 10:52:16;;;;;;;3.50;1.00;;;;;;;;;;5067323;28;20028;-73
2022/09/02 10:55:12;;;;;;;8.30;1.17;;;;;;;;;;5073679;28;20042;-75
2022/09/02 10:58:03;;;;;;;4.80;1.42;;;;;;;;;;5074264;28;20028;-76
2022/09/02 11:00:29;;;;;;;8.27;0.90;;;;;;;;;;5073362;28;20428;-71
2022/09/02 11:03:13;;;;;;;3.90;1.17;;;;;;;;;;5073543;28;20118;-73
2022/09/02 11:06:13;;;;;;;6.78;1.08;;;;;;;;;;5064816;28;20362;-73
2022/09/02 11:08:39;;;;;;;2.97;1.15;;;;;;;;;;5048289;28;20039;-73
2022/09/02 11:11:24;;;;;;;2.10;1.08;;;;;;;;;;5077652;28;20059;-73
2022/09/02 11:13:59;;;;;;;3.75;1.15;;;;;;;;;;5043281;28;20032;-73
2022/09/02 11:16:35;;;;;;;5.35;1.30;;;;;;;;;;5038729;28;20032;-73
2022/09/02 11:19:19;;;;;;;5.47;1.38;;;;;;;;;;5040158;28;20372;-73
2022/09/02 11:22:06;;;;;;;5.35;1.23;;;;;;;;;;5060618;28;20026;-72
2022/09/02 11:24:39;;;;;;;8.43;1.13;;;;;;;;;;5065269;28;20032;-71
2022/09/02 11:27:11;;;;;;;;;;;;;;;;;;5068409;28;20213;-71
2022/09/02 11:29:45;;;;;;;2.33;1.13;;;;;;;;;;5070226;28;19939;-71
2022/09/02 11:32:22;;;;;;;2.58;1.15;;;;;;;;;;5076295;28;20025;-71
2022/09/02 11:34:49;;;;;;;5.85;1.30;;;;;;;;;;5065077;28;20373;-71
2022/09/02 11:37:58;;;;;;;5.38;1.10;;;;;;;;;;5053599;28;20085;-71
2022/09/02 11:40:37;;;;;;;6.50;1.35;;;;;;;;;;5029618;28;20123;-71
2022/09/02 11:43:03;;;;;;;6.20;1.30;;;;;;;;;;5051152;28;20111;-71
2022/09/02 11:45:34;;;;;;;6.75;1.20;;;;;;;;;;5071991;28;20110;-71
2022/09/02 11:48:06;;;;;;;3.90;1.33;;;;;;;;;;5069561;28;20120;-71
2022/09/02 11:50:56;;;;;;;8.20;1.40;;;;;;;;;;5050273;28;20371;-71
2022/09/02 11:53:37;;;;;;;4.28;1.30;;;;;;;;;;5082622;28;20300;-71
2022/09/02 11:56:16;;;;;;;2.58;1.00;;;;;;;;;;5056414;28;20036;-71
2022/09/02 11:58:45;;;;;;;4.03;1.27;;;;;;;;;;5067387;28;20024;-72
2022/09/02 12:01:20;;;;;;;5.57;1.40;;;;;;;;;;5052772;28;20539;-72
2022/09/02 12:03:51;;;;;;;5.00;1.30;;;;;;;;;;5050486;28;20029;-72
2022/09/02 12:06:20;;;;;;;5.25;1.40;;;;;;;;;;5046859;28;20101;-72
2022/09/02 12:08:45;;;;;;;4.85;1.52;;;;;;;;;;5048601;28;20048;-71
2022/09/02 12:11:46;;;;;;;6.75;1.38;;;;;;;;;;5058510;28;20492;-71
2022/09/02 12:14:24;;;;;;;4.70;1.27;;;;;;;;;;5062041;28;20024;-71
2022/09/02 12:17:02;;;;;;;3.20;1.20;;;;;;;;;;5067156;28;20024;-71
2022/09/02 12:19:39;;;;;;;4.55;1.10;;;;;;;;;;5049121;28;20020;-71
2022/09/02 12:22:16;;;;;;;3.45;1.45;;;;;;;;;;5035279;28;20025;-71
2022/09/02 12:24:55;;;;;;;2.20;1.10;;;;;;;;;;5073303;28;20036;-71
2022/09/02 12:27:28;;;;;;;5.47;1.30;;;;;;;;;;5062379;28;20036;-71
2022/09/02 12:29:53;;;;;;;;;;;;;;;;;;5068060;28;20048;-71
2022/09/02 12:32:50;;;;;;;3.88;1.17;;;;;;;;;;5086359;28;19922;-71
2022/09/02 12:35:37;;;;;;;7.53;1.70;;;;;;;;;;5070124;28;20540;-71
2022/09/02 12:38:06;;;;;;;4.07;1.52;;;;;;;;;;5057514;28;20040;-71
2022/09/02 12:40:32;;;;;;;6.63;1.17;;;;;;;;;;5069508;28;20028;-71
2022/09/02 12:42:59;;;;;;;7.32;1.80;;;;;;;;;;5053075;28;20376;-71
2022/09/02 12:45:26;;;;;;;3.60;1.27;;;;;;;;;;5052956;28;20060;-71
2022/09/02 12:48:11;;;;;;;3.85;1.10;;;;;;;;;;5051177;28;20024;-71
2022/09/02 12:50:54;;;;;;;5.60;1.50;;;;;;;;;;5052569;28;20032;-71
2022/09/02 12:53:23;;;;;;;5.60;1.50;;;;;;;;;;5048218;28;20036;-71
2022/09/02 12:55:57;;;;;;;7.00;1.50;;;;;;;;;;5060407;28;20028;-71
2022/09/02 12:58:22;;;;;;;6.20;1.60;;;;;;;;;;5052209;28;20024;-71
2022/09/02 13:01:09;;;;;;;7.25;2.10;;;;;;;;;;5067977;28;20085;-71
2022/09/02 13:03:44;;;;;;;2.88;1.40;;;;;;;;;;5068943;28;20036;-71
2022/09/02 13:06:26;;;;;;;5.40;1.27;;;;;;;;;;5069572;28;20025;-70
2022/09/02 13:09:14;;;;;;;2.65;1.48;;;;;;;;;;5039953;28;20588;-73
2022/09/02 13:11:59;;;;;;;4.13;1.38;;;;;;;;;;5052039;28;20549;-72
2022/09/02 13:14:43;;;;;;;7.28;1.35;;;;;;;;;;5065586;28;20033;-74
2022/09/02 13:17:33;;;;;;;4.70;1.23;;;;;;;;;;5066002;28;20072;-72
2022/09/02 13:20:35;;;;;;;3.65;1.58;;;;;;;;;;5053693;28;20484;-72
2022/09/02 13:23:25;;;;;;;3.05;1.42;;;;;;;;;;5052293;28;20050;-72
2022/09/02 13:26:18;;;;;;;3.20;1.02;;;;;;;;;;5068706;28;20042;-72
2022/09/02 13:29:25;;;;;;;7.60;1.70;;;;;;;;;;5068616;28;20052;-73
2022/09/02 13:32:03;;;;;;;10.20;1.70;;;;;;;;;;5065963;28;20044;-72
2022/09/02 13:34:29;;;;;;;3.05;1.10;;;;;;;;;;5051284;28;20074;-72
2022/09/02 13:36:56;;;;;;;4.43;1.40;;;;;;;;;;5033642;28;20075;-72
2022/09/02 13:39:25;;;;;;;4.07;1.00;;;;;;;;;;5048688;28;20036;-72
2022/09/02 13:41:51;;;;;;;5.03;1.50;;;;;;;;;;5064454;28;20043;-72
2022/09/02 13:44:19;;;;;;;2.47;1.10;;;;;;;;;;5050219;28;20033;-72
2022/09/02 13:47:01;;;;;;;2.65;1.23;;;;;;;;;;5058241;28;20028;-69
2022/09/02 13:49:30;;;;;;;3.40;1.33;;;;;;;;;;5052612;28;20147;-70
2022/09/02 13:51:55;;;;;;;7.15;1.50;;;;;;;;;;5036430;28;20036;-70
2022/09/02 13:54:30;;;;;;;2.55;1.08;;;;;;;;;;5060974;28;20668;-70
2022/09/02 13:56:59;;;;;;;3.00;1.05;;;;;;;;;;5055389;28;20036;-70
2022/09/02 13:59:38;;;;;;;5.82;1.52;;;;;;;;;;5045519;28;20173;-70
2022/09/02 14:02:16;;;;;;;3.65;1.40;;;;;;;;;;5060214;28;20028;-72
2022/09/02 14:04:41;;;;;;;2.35;1.30;;;;;;;;;;5030828;28;20082;-71
2022/09/02 14:07:07;;;;;;;7.32;1.40;;;;;;;;;;5054240;28;20052;-71
2022/09/02 14:09:36;;;;;;;4.25;1.38;;;;;;;;;;5057900;28;20111;-71
2022/09/02 14:12:01;;;;;;;4.07;1.27;;;;;;;;;;5059830;28;20036;-71
2022/09/02 14:14:27;;;;;;;4.72;1.63;;;;;;;;;;5058541;28;20115;-71
2022/09/02 14:16:52;;;;;;;2.20;1.20;;;;;;;;;;5075276;28;20063;-71
2022/09/02 14:19:21;;;;;;;4.82;1.40;;;;;;;;;;5042071;28;20519;-70
2022/09/02 14:21:48;;;;;;;4.50;1.30;;;;;;;;;;5053987;28;20028;-71
2022/09/02 14:24:19;;;;;;;2.88;1.20;;;;;;;;;;5057178;28;20534;-70
2022/09/02 14:26:45;;;;;;;2.78;1.35;;;;;;;;;;5059018;28;20507;-70
2022/09/02 14:29:15;;;;;;;4.32;1.23;;;;;;;;;;5041042;28;20044;-70
2022/09/02 14:31:40;;;;;;;6.13;1.80;;;;;;;;;;5044500;28;20047;-70
2022/09/02 14:34:32;;;;;;;4.90;1.33;;;;;;;;;;5044311;28;20052;-70
2022/09/02 14:36:57;;;;;;;9.48;2.08;;;;;;;;;;5066241;28;20106;-70
2022/09/02 14:39:22;;;;;;;8.35;1.27;;;;;;;;;;5036870;28;20467;-70
2022/09/02 14:41:49;;;;;;;3.58;1.10;;;;;;;;;;5052941;28;20566;-71
2022/09/02 14:44:31;;;;;;;2.38;1.20;;;;;;;;;;5061627;28;20491;-70
2022/09/02 14:46:57;;;;;;;4.30;1.50;;;;;;;;;;5078405;28;20028;-70
2022/09/02 14:49:28;;;;;;;2.00;1.13;;;;;;;;;;5047168;28;20669;-70
2022/09/02 14:51:56;;;;;;;5.65;1.58;;;;;;;;;;5061658;28;20483;-70
2022/09/02 14:54:41;;;;;;;3.22;1.50;;;;;;;;;;5062896;28;20028;-70
2022/09/02 14:57:30;;;;;;;3.25;1.25;;;;;;;;;;5059552;28;20472;-70
2022/09/02 14:59:56;;;;;;;5.15;1.25;;;;;;;;;;5055469;28;20060;-70
2022/09/02 15:02:31;;;;;;;4.20;1.00;;;;;;;;;;5060101;28;20073;-72
2022/09/02 15:04:57;;;;;;;3.33;1.23;;;;;;;;;;5060287;28;20036;-70
2022/09/02 15:07:23;;;;;;;3.10;1.20;;;;;;;;;;5074941;28;20036;-70
2022/09/02 15:09:50;;;;;;;2.53;1.20;;;;;;;;;;5062716;28;20213;-70